Time;durP1;ratioP1;P1;durP2;ratioP2;P2;SDS_P1;SDS_P2;PMS_P1;PMS_P2;Temp;Humidity;BMP_temperature;BMP_pressure;BME280_temperature;BME280_humidity;BME280_pressure;Samples;Min_cycle;Max_cycle;Signal;HPM_P1;HPM_P2
2023/01/31 00:00:12;;;;;;;;;;;;;;;;;;6130430;23;20283;-90
2023/01/31 00:02:38;;;;;;;;;;;;;;;;;;6130487;23;19987;-91
2023/01/31 00:05:04;;;;;;;;;;;;;;;;;;6130783;23;19955;-91
2023/01/31 00:07:30;;;;;;;;;;;;;;;;;;6130970;23;19944;-91
2023/01/31 00:09:56;;;;;;;;;;;;;;;;;;6130468;23;19916;-91
2023/01/31 00:12:21;;;;;;;;;;;;;;;;;;6130929;23;19924;-91
2023/01/31 00:14:47;;;;;;;;;;;;;;;;;;6155245;23;19916;-90
2023/01/31 00:17:13;;;;;;;;;;;;;;;;;;6106335;23;20366;-91
2023/01/31 00:19:39;;;;;;;;;;;;;;;;;;6105793;23;19917;-91
2023/01/31 00:22:05;;;;;;;;;;;;;;;;;;6106149;23;19924;-92
2023/01/31 00:24:31;;;;;;;;;;;;;;;;;;6130781;23;19955;-91
2023/01/31 00:26:57;;;;;;;;;;;;;;;;;;6106272;23;20338;-91
2023/01/31 00:29:23;;;;;;;;;;;;;;;;;;6105571;23;19963;-91
2023/01/31 00:31:49;;;;;;;;;;;;;;;;;;6106328;23;20336;-91
2023/01/31 00:34:15;;;;;;;;;;;;;;;;;;6130607;23;19917;-90
2023/01/31 00:36:41;;;;;;;;;;;;;;;;;;6106195;23;19948;-90
2023/01/31 00:39:07;;;;;;;;;;;;;;;;;;6130005;23;19917;-91
2023/01/31 00:41:33;;;;;;;;;;;;;;;;;;6105160;23;19976;-91
2023/01/31 00:43:58;;;;;;;;;;;;;;;;;;6105951;23;19916;-91
2023/01/31 00:46:24;;;;;;;;;;;;;;;;;;6105852;23;19921;-91
2023/01/31 00:48:50;;;;;;;;;;;;;;;;;;6105958;23;20332;-90
2023/01/31 00:51:16;;;;;;;;;;;;;;;;;;6129995;23;19943;-91
2023/01/31 00:53:42;;;;;;;;;;;;;;;;;;6105840;23;19920;-91
2023/01/31 00:56:08;;;;;;;;;;;;;;;;;;6130331;23;19971;-91
2023/01/31 00:58:34;;;;;;;;;;;;;;;;;;6105818;23;19916;-91
2023/01/31 01:01:00;;;;;;;;;;;;;;;;;;6105481;23;20346;-90
2023/01/31 01:03:26;;;;;;;;;;;;;;;;;;6105911;23;19924;-90
2023/01/31 01:05:52;;;;;;;;;;;;;;;;;;6105819;23;19917;-91
2023/01/31 01:08:17;;;;;;;;;;;;;;;;;;6130242;23;20378;-91
2023/01/31 01:10:43;;;;;;;;;;;;;;;;;;6105301;23;19916;-91
2023/01/31 01:13:09;;;;;;;;;;;;;;;;;;6105612;23;19916;-90
2023/01/31 01:15:35;;;;;;;;;;;;;;;;;;6113912;23;19917;-90
2023/01/31 01:18:01;;;;;;;;;;;;;;;;;;6130083;23;19916;-91
2023/01/31 01:20:27;;;;;;;;;;;;;;;;;;6129689;23;20254;-91
2023/01/31 01:22:53;;;;;;;;;;;;;;;;;;6130186;23;19925;-91
2023/01/31 01:25:19;;;;;;;;;;;;;;;;;;6130254;23;19920;-91
2023/01/31 01:27:45;;;;;;;;;;;;;;;;;;6130071;23;19968;-91
2023/01/31 01:30:11;;;;;;;;;;;;;;;;;;6154214;23;20335;-92
2023/01/31 01:32:37;;;;;;;;;;;;;;;;;;6130110;23;19987;-91
2023/01/31 01:35:03;;;;;;;;;;;;;;;;;;6154791;23;19995;-91
2023/01/31 01:37:29;;;;;;;;;;;;;;;;;;6130383;23;19917;-91
2023/01/31 01:39:55;;;;;;;;;;;;;;;;;;6129779;23;19989;-91
2023/01/31 01:42:21;;;;;;;;;;;;;;;;;;6129837;23;19956;-91
2023/01/31 01:44:47;;;;;;;;;;;;;;;;;;6130061;23;19952;-91
2023/01/31 01:47:12;;;;;;;;;;;;;;;;;;6130005;23;19927;-91
2023/01/31 01:49:38;;;;;;;;;;;;;;;;;;6129647;23;19924;-91
2023/01/31 01:52:04;;;;;;;;;;;;;;;;;;6129976;23;19978;-91
2023/01/31 01:54:30;;;;;;;;;;;;;;;;;;6129929;23;19924;-89
2023/01/31 01:56:56;;;;;;;;;;;;;;;;;;6130146;23;19917;-90
2023/01/31 01:59:22;;;;;;;;;;;;;;;;;;6129239;23;20323;-90
2023/01/31 02:01:48;;;;;;;;;;;;;;;;;;6130020;23;19920;-90
2023/01/31 02:04:14;;;;;;;;;;;;;;;;;;6129912;23;19917;-91
2023/01/31 02:06:40;;;;;;;;;;;;;;;;;;6129795;23;19927;-90
2023/01/31 02:09:05;;;;;;;;;;;;;;;;;;6154052;23;20260;-90
2023/01/31 02:11:31;;;;;;;;;;;;;;;;;;6129816;23;19916;-90
2023/01/31 02:13:57;;;;;;;;;;;;;;;;;;6129644;23;19917;-90
2023/01/31 02:16:23;;;;;;;;;;;;;;;;;;6129752;23;19917;-90
2023/01/31 02:18:50;;;;;;;;;;;;;;;;;;6154485;23;19917;-90
2023/01/31 02:21:16;;;;;;;;;;;;;;;;;;6154130;23;19916;-90
2023/01/31 02:23:42;;;;;;;;;;;;;;;;;;6154506;23;19988;-90
2023/01/31 02:26:07;;;;;;;;;;;;;;;;;;6131819;23;20379;-90
2023/01/31 02:28:33;;;;;;;;;;;;;;;;;;6131685;23;19917;-89
2023/01/31 02:30:59;;;;;;;;;;;;;;;;;;6131287;23;19987;-90
2023/01/31 02:33:25;;;;;;;;;;;;;;;;;;6131773;23;20375;-90
2023/01/31 02:35:51;;;;;;;;;;;;;;;;;;6131765;23;19999;-90
2023/01/31 02:38:17;;;;;;;;;;;;;;;;;;6131647;23;19959;-90
2023/01/31 02:40:43;;;;;;;;;;;;;;;;;;6155697;23;20282;-90
2023/01/31 02:43:09;;;;;;;;;;;;;;;;;;6131480;23;20346;-90
2023/01/31 02:45:35;;;;;;;;;;;;;;;;;;6131631;23;19916;-90
2023/01/31 02:48:01;;;;;;;;;;;;;;;;;;6131615;23;19995;-90
2023/01/31 02:50:26;;;;;;;;;;;;;;;;;;6130988;23;19923;-90
2023/01/31 02:52:52;;;;;;;;;;;;;;;;;;6131612;23;19924;-90
2023/01/31 02:58:03;;;;;;;;;;;;;;;;;;6156161;23;20449;-90
2023/01/31 03:00:29;;;;;;;;;;;;;;;;;;6131103;23;19960;-90
2023/01/31 03:02:55;;;;;;;;;;;;;;;;;;6131609;23;20512;-90
2023/01/31 03:05:21;;;;;;;;;;;;;;;;;;6131526;23;19917;-90
2023/01/31 03:07:47;;;;;;;;;;;;;;;;;;6131449;23;19921;-90
2023/01/31 03:10:13;;;;;;;;;;;;;;;;;;6130818;23;19917;-90
2023/01/31 03:12:39;;;;;;;;;;;;;;;;;;6155998;23;19923;-90
2023/01/31 03:15:05;;;;;;;;;;;;;;;;;;6155741;23;19968;-89
2023/01/31 03:17:31;;;;;;;;;;;;;;;;;;6156026;23;19921;-90
2023/01/31 03:19:57;;;;;;;;;;;;;;;;;;6130802;23;19920;-90
2023/01/31 03:22:23;;;;;;;;;;;;;;;;;;6131461;23;19917;-90
2023/01/31 03:24:48;;;;;;;;;;;;;;;;;;6131262;23;19928;-89
2023/01/31 03:27:15;;;;;;;;;;;;;;;;;;6131211;23;19968;-90
2023/01/31 03:29:40;;;;;;;;;;;;;;;;;;6130598;23;19967;-90
2023/01/31 03:32:07;;;;;;;;;;;;;;;;;;6131041;23;19921;-90
2023/01/31 03:34:33;;;;;;;;;;;;;;;;;;6131186;23;19917;-91
2023/01/31 03:36:59;;;;;;;;;;;;;;;;;;6155170;23;19948;-90
2023/01/31 03:39:25;;;;;;;;;;;;;;;;;;6130721;23;20306;-91
2023/01/31 03:41:52;;;;;;;;;;;;;;;;;;6131095;23;19948;-90
2023/01/31 03:44:18;;;;;;;;;;;;;;;;;;6155447;23;19920;-90
2023/01/31 03:46:44;;;;;;;;;;;;;;;;;;6155622;23;20003;-89
2023/01/31 03:49:10;;;;;;;;;;;;;;;;;;6130638;23;20008;-90
2023/01/31 03:51:36;;;;;;;;;;;;;;;;;;6131119;23;20335;-91
2023/01/31 03:54:02;;;;;;;;;;;;;;;;;;6130931;23;19923;-90
2023/01/31 03:56:28;;;;;;;;;;;;;;;;;;6131064;23;19916;-90
2023/01/31 03:58:53;;;;;;;;;;;;;;;;;;6130687;23;19917;-89
2023/01/31 04:01:19;;;;;;;;;;;;;;;;;;6154655;23;19923;-90
2023/01/31 04:03:45;;;;;;;;;;;;;;;;;;6155372;23;19920;-90
2023/01/31 04:06:11;;;;;;;;;;;;;;;;;;6130772;23;19974;-90
2023/01/31 04:08:37;;;;;;;;;;;;;;;;;;6130766;23;19966;-90
2023/01/31 04:11:03;;;;;;;;;;;;;;;;;;6130245;23;20059;-90
2023/01/31 04:13:29;;;;;;;;;;;;;;;;;;6155360;23;19948;-90
2023/01/31 04:15:55;;;;;;;;;;;;;;;;;;6130746;23;20283;-90
2023/01/31 04:18:21;;;;;;;;;;;;;;;;;;6155421;23;19920;-90
2023/01/31 04:20:47;;;;;;;;;;;;;;;;;;6129968;23;19917;-90
2023/01/31 04:23:13;;;;;;;;;;;;;;;;;;6130787;23;19964;-90
2023/01/31 04:25:38;;;;;;;;;;;;;;;;;;6130809;23;20258;-89
2023/01/31 04:28:04;;;;;;;;;;;;;;;;;;6130543;23;19921;-90
2023/01/31 04:30:30;;;;;;;;;;;;;;;;;;6129863;23;19916;-89
2023/01/31 04:32:56;;;;;;;;;;;;;;;;;;6130812;23;20356;-91
2023/01/31 04:35:22;;;;;;;;;;;;;;;;;;6130641;23;19987;-90
2023/01/31 04:37:48;;;;;;;;;;;;;;;;;;6155249;23;19992;-90
2023/01/31 04:40:14;;;;;;;;;;;;;;;;;;6130093;23;20532;-89
2023/01/31 04:42:40;;;;;;;;;;;;;;;;;;6130386;23;19959;-89
2023/01/31 04:45:06;;;;;;;;;;;;;;;;;;6130179;23;19924;-89
2023/01/31 04:47:32;;;;;;;;;;;;;;;;;;6130301;23;19920;-90
2023/01/31 04:49:57;;;;;;;;;;;;;;;;;;6130000;23;20331;-90
2023/01/31 04:52:24;;;;;;;;;;;;;;;;;;6130480;23;19916;-90
2023/01/31 04:54:49;;;;;;;;;;;;;;;;;;6130399;23;19967;-90
2023/01/31 04:57:15;;;;;;;;;;;;;;;;;;6155042;23;19917;-90
2023/01/31 04:59:41;;;;;;;;;;;;;;;;;;6129791;23;20254;-90
2023/01/31 05:04:42;;;;;;;;;;;;;;;;;;6153187;23;19916;-90
2023/01/31 05:07:08;;;;;;;;;;;;;;;;;;6154195;23;19935;-90
2023/01/31 05:09:34;;;;;;;;;;;;;;;;;;6153511;23;20018;-90
2023/01/31 05:12:00;;;;;;;;;;;;;;;;;;6129488;23;20335;-90
2023/01/31 05:14:26;;;;;;;;;;;;;;;;;;6129413;23;19916;-90
2023/01/31 05:16:52;;;;;;;;;;;;;;;;;;6129445;23;19920;-90
2023/01/31 05:19:18;;;;;;;;;;;;;;;;;;6128815;23;20240;-90
2023/01/31 05:21:53;;;;;;;;;;;;;;;;;;6129402;23;19920;-90
2023/01/31 05:24:19;;;;;;;;;;;;;;;;;;6129233;23;19917;-90
2023/01/31 05:26:46;;;;;;;;;;;;;;;;;;6129365;23;19967;-89
2023/01/31 05:29:12;;;;;;;;;;;;;;;;;;6128821;23;19959;-90
2023/01/31 05:31:38;;;;;;;;;;;;;;;;;;6129450;23;19925;-90
2023/01/31 05:34:04;;;;;;;;;;;;;;;;;;6129390;23;19920;-90
2023/01/31 05:36:30;;;;;;;;;;;;;;;;;;6129151;23;20331;-90
2023/01/31 05:38:56;;;;;;;;;;;;;;;;;;6129011;23;20354;-90
2023/01/31 05:41:22;;;;;;;;;;;;;;;;;;6153820;23;19917;-89
2023/01/31 05:43:47;;;;;;;;;;;;;;;;;;6129013;23;19923;-89
2023/01/31 05:46:13;;;;;;;;;;;;;;;;;;6153923;23;20003;-89
2023/01/31 05:48:39;;;;;;;;;;;;;;;;;;6129368;23;20259;-90
2023/01/31 05:51:05;;;;;;;;;;;;;;;;;;6153283;23;20258;-90
2023/01/31 05:53:31;;;;;;;;;;;;;;;;;;6153584;23;19951;-89
2023/01/31 05:55:57;;;;;;;;;;;;;;;;;;6129308;23;19955;-89
2023/01/31 05:58:23;;;;;;;;;;;;;;;;;;6128650;23;19916;-90
2023/01/31 06:00:49;;;;;;;;;;;;;;;;;;6128497;23;19927;-90
2023/01/31 06:03:15;;;;;;;;;;;;;;;;;;6129164;23;19917;-89
2023/01/31 06:05:41;;;;;;;;;;;;;;;;;;6129092;23;19917;-90
2023/01/31 06:08:07;;;;;;;;;;;;;;;;;;6128993;23;19921;-90
2023/01/31 06:10:32;;;;;;;;;;;;;;;;;;6128541;23;19975;-90
2023/01/31 06:12:58;;;;;;;;;;;;;;;;;;6129138;23;19928;-90
2023/01/31 06:15:24;;;;;;;;;;;;;;;;;;6128717;23;20358;-90
2023/01/31 06:17:50;;;;;;;;;;;;;;;;;;6129040;23;19917;-89
2023/01/31 06:20:16;;;;;;;;;;;;;;;;;;6128597;23;19967;-89
2023/01/31 06:22:42;;;;;;;;;;;;;;;;;;6128924;23;20299;-89
2023/01/31 06:25:08;;;;;;;;;;;;;;;;;;6129085;23;19917;-90
2023/01/31 06:27:34;;;;;;;;;;;;;;;;;;6128995;23;19920;-90
2023/01/31 06:30:00;;;;;;;;;;;;;;;;;;6128326;23;20331;-90
2023/01/31 06:32:26;;;;;;;;;;;;;;;;;;6128713;23;19916;-90
2023/01/31 06:34:52;;;;;;;;;;;;;;;;;;6129103;23;19916;-90
2023/01/31 06:37:18;;;;;;;;;;;;;;;;;;6129046;23;19975;-90
2023/01/31 06:39:44;;;;;;;;;;;;;;;;;;6128341;23;19921;-90
2023/01/31 06:42:10;;;;;;;;;;;;;;;;;;6128989;23;20267;-90
2023/01/31 06:44:36;;;;;;;;;;;;;;;;;;6128681;23;19939;-90
2023/01/31 06:47:02;;;;;;;;;;;;;;;;;;6129051;23;20312;-90
2023/01/31 06:49:28;;;;;;;;;;;;;;;;;;6153086;23;19944;-89
2023/01/31 06:51:54;;;;;;;;;;;;;;;;;;6128981;23;19917;-90
2023/01/31 06:54:20;;;;;;;;;;;;;;;;;;6128541;23;19917;-90
2023/01/31 06:56:46;;;;;;;;;;;;;;;;;;6128923;23;19971;-90
2023/01/31 06:59:12;;;;;;;;;;;;;;;;;;6152945;23;20872;-89
2023/01/31 07:01:38;;;;;;;;;;;;;;;;;;6128808;23;19927;-90
2023/01/31 07:04:04;;;;;;;;;;;;;;;;;;6128954;23;19916;-90
2023/01/31 07:06:30;;;;;;;;;;;;;;;;;;6128786;23;19921;-89
2023/01/31 07:08:55;;;;;;;;;;;;;;;;;;6128575;23;19946;-89
2023/01/31 07:11:21;;;;;;;;;;;;;;;;;;6154394;23;20358;-90
2023/01/31 07:13:49;;;;;;;;;;;;;;;;;;6130362;23;20266;-90
2023/01/31 07:16:15;;;;;;;;;;;;;;;;;;6130191;23;19970;-90
2023/01/31 07:18:41;;;;;;;;;;;;;;;;;;6130440;23;19956;-89
2023/01/31 07:21:07;;;;;;;;;;;;;;;;;;6130023;23;19916;-90
2023/01/31 07:23:33;;;;;;;;;;;;;;;;;;6130085;23;19916;-90
2023/01/31 07:26:01;;;;;;;;;;;;;;;;;;6129931;23;19971;-91
2023/01/31 07:28:26;;;;;;;;;;;;;;;;;;6129943;23;19921;-90
2023/01/31 07:30:52;;;;;;;;;;;;;;;;;;6129806;23;20358;-90
2023/01/31 07:33:18;;;;;;;;;;;;;;;;;;6129987;23;20012;-90
2023/01/31 07:35:44;;;;;;;;;;;;;;;;;;6154433;23;19976;-90
2023/01/31 07:38:10;;;;;;;;;;;;;;;;;;6129849;23;20339;-90
2023/01/31 07:40:38;;;;;;;;;;;;;;;;;;6129531;23;19927;-91
2023/01/31 07:43:04;;;;;;;;;;;;;;;;;;6154309;23;19996;-91
2023/01/31 07:45:30;;;;;;;;;;;;;;;;;;6129740;23;19956;-90
2023/01/31 07:47:56;;;;;;;;;;;;;;;;;;6129815;23;20355;-91
2023/01/31 07:50:22;;;;;;;;;;;;;;;;;;6153975;23;19917;-90
2023/01/31 07:52:49;;;;;;;;;;;;;;;;;;6130146;23;19924;-91
2023/01/31 07:55:15;;;;;;;;;;;;;;;;;;6129875;23;19987;-91
2023/01/31 07:57:41;;;;;;;;;;;;;;;;;;6129633;23;20417;-90
2023/01/31 08:03:31;;;;;;;;;;;;;;;;;;6129299;23;19948;-91
2023/01/31 08:05:37;;;;;;;;;;;;;;;;;;6154251;23;19916;-91
2023/01/31 08:08:10;;;;;;;;;;;;;;;;;;6154155;23;19995;-90
2023/01/31 08:10:35;;;;;;;;;;;;;;;;;;6129182;23;19939;-90
2023/01/31 08:13:01;;;;;;;;;;;;;;;;;;6129602;23;19917;-91
2023/01/31 08:15:27;;;;;;;;;;;;;;;;;;6153741;23;19949;-90
2023/01/31 08:17:53;;;;;;;;;;;;;;;;;;6154202;23;19916;-91
2023/01/31 08:20:19;;;;;;;;;;;;;;;;;;6153475;23;19995;-90
2023/01/31 08:22:45;;;;;;;;;;;;;;;;;;6153835;23;20294;-91
2023/01/31 08:25:11;;;;;;;;;;;;;;;;;;6129395;23;19948;-90
2023/01/31 08:27:37;;;;;;;;;;;;;;;;;;6129244;23;19979;-90
2023/01/31 08:30:03;;;;;;;;;;;;;;;;;;6128465;23;20208;-91
2023/01/31 08:32:29;;;;;;;;;;;;;;;;;;6128816;23;19920;-90
2023/01/31 08:34:54;;;;;;;;;;;;;;;;;;6129050;23;19924;-91
2023/01/31 08:37:20;;;;;;;;;;;;;;;;;;6153267;23;20255;-90
2023/01/31 08:39:47;;;;;;;;;;;;;;;;;;6128693;23;19917;-90
2023/01/31 08:42:13;;;;;;;;;;;;;;;;;;6128776;23;20063;-90
2023/01/31 08:44:39;;;;;;;;;;;;;;;;;;6128709;23;19955;-91
2023/01/31 08:47:05;;;;;;;;;;;;;;;;;;6128954;23;19921;-90
2023/01/31 08:49:35;;;;;;;;;;;;;;;;;;6128406;23;19923;-90
2023/01/31 08:52:01;;;;;;;;;;;;;;;;;;6153448;23;19916;-91
2023/01/31 08:54:27;;;;;;;;;;;;;;;;;;6153273;23;19956;-91
2023/01/31 08:56:52;;;;;;;;;;;;;;;;;;6128739;23;20043;-90
2023/01/31 09:02:05;;;;;;;;;;;;;;;;;;6153457;23;20251;-90
2023/01/31 09:04:31;;;;;;;;;;;;;;;;;;6128613;23;19921;-91
2023/01/31 09:06:57;;;;;;;;;;;;;;;;;;6153179;23;19920;-91
2023/01/31 09:09:24;;;;;;;;;;;;;;;;;;6127921;23;19921;-90
2023/01/31 09:11:50;;;;;;;;;;;;;;;;;;6128647;23;20219;-89
2023/01/31 09:14:16;;;;;;;;;;;;;;;;;;6128352;23;19923;-90
2023/01/31 09:16:44;;;;;;;;;;;;;;;;;;6128397;23;19923;-91
2023/01/31 09:19:10;;;;;;;;;;;;;;;;;;6127979;23;19917;-91
2023/01/31 09:21:36;;;;;;;;;;;;;;;;;;6128369;23;20259;-90
2023/01/31 09:24:02;;;;;;;;;;;;;;;;;;6128495;23;19923;-90
2023/01/31 09:26:28;;;;;;;;;;;;;;;;;;6152896;23;19916;-90
2023/01/31 09:28:56;;;;;;;;;;;;;;;;;;6128057;23;19921;-91
2023/01/31 09:31:22;;;;;;;;;;;;;;;;;;6128133;23;19923;-90
2023/01/31 09:33:48;;;;;;;;;;;;;;;;;;6152324;23;19916;-89
2023/01/31 09:36:14;;;;;;;;;;;;;;;;;;6128251;23;19996;-90
2023/01/31 09:38:40;;;;;;;;;;;;;;;;;;6128449;23;20326;-89
2023/01/31 09:41:06;;;;;;;;;;;;;;;;;;6152429;23;20006;-89
2023/01/31 09:43:32;;;;;;;;;;;;;;;;;;6127952;23;19939;-89
2023/01/31 09:45:58;;;;;;;;;;;;;;;;;;6127896;23;19924;-90
2023/01/31 09:48:23;;;;;;;;;;;;;;;;;;6128202;23;20200;-90
2023/01/31 09:50:49;;;;;;;;;;;;;;;;;;6127297;23;19917;-90
2023/01/31 09:53:20;;;;;;;;;;;;;;;;;;6127739;23;20200;-89
2023/01/31 09:55:46;;;;;;;;;;;;;;;;;;6128143;23;19924;-89
2023/01/31 09:58:12;;;;;;;;;;;;;;;;;;6127927;23;19920;-90
2023/01/31 10:00:38;;;;;;;;;;;;;;;;;;6127628;23;20251;-89
2023/01/31 10:03:04;;;;;;;;;;;;;;;;;;6127993;23;19916;-90
2023/01/31 10:05:30;;;;;;;;;;;;;;;;;;6127869;23;19991;-90
2023/01/31 10:07:55;;;;;;;;;;;;;;;;;;6152424;23;19920;-90
2023/01/31 10:10:21;;;;;;;;;;;;;;;;;;6152116;23;19920;-90
2023/01/31 10:12:47;;;;;;;;;;;;;;;;;;6152841;23;20307;-90
2023/01/31 10:15:13;;;;;;;;;;;;;;;;;;6152201;23;19924;-91
2023/01/31 10:17:39;;;;;;;;;;;;;;;;;;6128044;23;19920;-91
2023/01/31 10:20:05;;;;;;;;;;;;;;;;;;6127522;23;19924;-90
2023/01/31 10:22:31;;;;;;;;;;;;;;;;;;6127889;23;20390;-90
2023/01/31 10:24:58;;;;;;;;;;;;;;;;;;6128192;23;19951;-90
2023/01/31 10:27:24;;;;;;;;;;;;;;;;;;6127833;23;19921;-90
2023/01/31 10:29:50;;;;;;;;;;;;;;;;;;6127497;23;19927;-90
2023/01/31 10:32:15;;;;;;;;;;;;;;;;;;6152586;23;19995;-91
2023/01/31 10:34:41;;;;;;;;;;;;;;;;;;6128069;23;20005;-90
2023/01/31 10:37:07;;;;;;;;;;;;;;;;;;6152498;23;20278;-91
2023/01/31 10:39:33;;;;;;;;;;;;;;;;;;6152147;23;19920;-90
2023/01/31 10:41:59;;;;;;;;;;;;;;;;;;6152622;23;19951;-91
2023/01/31 10:44:25;;;;;;;;;;;;;;;;;;6127783;23;20785;-90
2023/01/31 10:46:51;;;;;;;;;;;;;;;;;;6129485;23;19924;-90
2023/01/31 10:49:17;;;;;;;;;;;;;;;;;;6129526;23;19916;-90
2023/01/31 10:51:43;;;;;;;;;;;;;;;;;;6129917;23;19987;-90
2023/01/31 10:54:11;;;;;;;;;;;;;;;;;;6129782;23;19982;-91
2023/01/31 10:56:37;;;;;;;;;;;;;;;;;;6129849;23;19974;-90
2023/01/31 10:59:03;;;;;;;;;;;;;;;;;;6129022;23;19920;-90
2023/01/31 11:01:29;;;;;;;;;;;;;;;;;;6129611;23;19921;-91
2023/01/31 11:03:55;;;;;;;;;;;;;;;;;;6154411;23;19916;-91
2023/01/31 11:06:21;;;;;;;;;;;;;;;;;;6129425;23;20362;-90
2023/01/31 11:08:47;;;;;;;;;;;;;;;;;;6129651;23;20007;-91
2023/01/31 11:11:13;;;;;;;;;;;;;;;;;;6153961;23;19917;-92
2023/01/31 11:13:39;;;;;;;;;;;;;;;;;;6154561;23;20350;-91
2023/01/31 11:16:05;;;;;;;;;;;;;;;;;;6129547;23;19944;-91
2023/01/31 11:18:30;;;;;;;;;;;;;;;;;;6129605;23;19948;-91
2023/01/31 11:20:56;;;;;;;;;;;;;;;;;;6129504;23;19961;-92
2023/01/31 11:23:22;;;;;;;;;;;;;;;;;;6129992;23;19927;-92
2023/01/31 11:25:48;;;;;;;;;;;;;;;;;;6129839;23;20656;-90
2023/01/31 11:28:14;;;;;;;;;;;;;;;;;;6129813;23;19921;-92
2023/01/31 11:30:40;;;;;;;;;;;;;;;;;;6129147;23;19924;-91
2023/01/31 11:33:06;;;;;;;;;;;;;;;;;;6129899;23;20337;-92
2023/01/31 11:35:32;;;;;;;;;;;;;;;;;;6154568;23;19917;-91
2023/01/31 11:37:58;;;;;;;;;;;;;;;;;;6130125;23;19921;-92
2023/01/31 11:40:25;;;;;;;;;;;;;;;;;;6129672;23;20350;-92
2023/01/31 11:42:52;;;;;;;;;;;;;;;;;;6130402;23;19994;-92
2023/01/31 11:45:18;;;;;;;;;;;;;;;;;;6130067;23;19917;-92
2023/01/31 11:47:44;;;;;;;;;;;;;;;;;;6129994;23;19944;-90
2023/01/31 11:50:10;;;;;;;;;;;;;;;;;;6154093;23;20199;-92
2023/01/31 11:52:36;;;;;;;;;;;;;;;;;;6130125;23;19988;-91
2023/01/31 11:55:02;;;;;;;;;;;;;;;;;;6130084;23;19948;-91
2023/01/31 11:57:28;;;;;;;;;;;;;;;;;;6129634;23;19917;-92
2023/01/31 11:59:54;;;;;;;;;;;;;;;;;;6129307;23;19987;-91
2023/01/31 12:02:20;;;;;;;;;;;;;;;;;;6154394;23;20290;-91
2023/01/31 12:04:45;;;;;;;;;;;;;;;;;;6154183;23;19987;-91
2023/01/31 12:07:11;;;;;;;;;;;;;;;;;;6129767;23;19999;-91
2023/01/31 12:09:37;;;;;;;;;;;;;;;;;;6129628;23;20254;-92
2023/01/31 12:12:05;;;;;;;;;;;;;;;;;;6129799;23;19944;-91
2023/01/31 12:14:31;;;;;;;;;;;;;;;;;;6129692;23;19917;-92
2023/01/31 12:16:57;;;;;;;;;;;;;;;;;;6105366;23;19966;-91
2023/01/31 12:19:24;;;;;;;;;;;;;;;;;;6104637;23;19920;-91
2023/01/31 12:21:50;;;;;;;;;;;;;;;;;;6105041;23;19923;-92
2023/01/31 12:24:16;;;;;;;;;;;;;;;;;;6104894;23;20012;-92
2023/01/31 12:26:42;;;;;;;;;;;;;;;;;;6105158;23;20008;-92
2023/01/31 12:29:08;;;;;;;;;;;;;;;;;;6104014;23;19917;-90
2023/01/31 12:31:34;;;;;;;;;;;;;;;;;;6129615;23;19924;-91
2023/01/31 12:33:59;;;;;;;;;;;;;;;;;;6104966;23;19931;-91
2023/01/31 12:36:25;;;;;;;;;;;;;;;;;;6105010;23;19917;-91
2023/01/31 12:38:51;;;;;;;;;;;;;;;;;;6105120;23;19917;-91
2023/01/31 12:41:17;;;;;;;;;;;;;;;;;;6104442;23;20247;-91
2023/01/31 12:43:43;;;;;;;;;;;;;;;;;;6104782;23;19920;-92
2023/01/31 12:46:10;;;;;;;;;;;;;;;;;;6104751;23;19920;-90
2023/01/31 12:48:36;;;;;;;;;;;;;;;;;;6129050;23;19928;-91
2023/01/31 12:51:02;;;;;;;;;;;;;;;;;;6104351;23;20324;-91
2023/01/31 12:53:27;;;;;;;;;;;;;;;;;;6104813;23;19924;-91
2023/01/31 12:55:53;;;;;;;;;;;;;;;;;;6104954;23;19916;-91
2023/01/31 12:58:19;;;;;;;;;;;;;;;;;;6129054;23;19921;-91
2023/01/31 13:00:45;;;;;;;;;;;;;;;;;;6104165;23;19917;-91
2023/01/31 13:03:11;;;;;;;;;;;;;;;;;;6104769;23;19917;-91
2023/01/31 13:05:37;;;;;;;;;;;;;;;;;;6104619;23;19917;-90
2023/01/31 13:08:03;;;;;;;;;;;;;;;;;;6104462;23;20354;-91
2023/01/31 13:10:29;;;;;;;;;;;;;;;;;;6104152;23;19939;-91
2023/01/31 13:12:55;;;;;;;;;;;;;;;;;;6104496;23;19939;-91
2023/01/31 13:15:21;;;;;;;;;;;;;;;;;;6109182;23;19987;-91
2023/01/31 13:17:46;;;;;;;;;;;;;;;;;;6129007;23;19917;-91
2023/01/31 13:20:12;;;;;;;;;;;;;;;;;;6128586;23;20295;-91
2023/01/31 13:22:39;;;;;;;;;;;;;;;;;;6128963;23;19917;-91
2023/01/31 13:25:05;;;;;;;;;;;;;;;;;;6128684;23;19963;-89
2023/01/31 13:27:31;;;;;;;;;;;;;;;;;;6128918;23;20323;-90
2023/01/31 13:29:57;;;;;;;;;;;;;;;;;;6152844;23;19963;-91
2023/01/31 13:32:23;;;;;;;;;;;;;;;;;;6153531;23;19928;-91
2023/01/31 13:34:49;;;;;;;;;;;;;;;;;;6128938;23;20370;-90
2023/01/31 13:37:21;;;;;;;;;;;;;;;;;;6128766;23;19959;-90
2023/01/31 13:39:47;;;;;;;;;;;;;;;;;;6128459;23;20251;-90
2023/01/31 13:42:13;;;;;;;;;;;;;;;;;;6128740;23;19943;-91
2023/01/31 13:44:39;;;;;;;;;;;;;;;;;;6128612;23;20380;-91
2023/01/31 13:47:05;;;;;;;;;;;;;;;;;;6153417;23;20181;-90
2023/01/31 13:49:31;;;;;;;;;;;;;;;;;;6152883;23;19917;-91
2023/01/31 13:51:57;;;;;;;;;;;;;;;;;;6153449;23;19923;-90
2023/01/31 13:54:23;;;;;;;;;;;;;;;;;;6128807;23;20251;-90
2023/01/31 13:56:49;;;;;;;;;;;;;;;;;;6128630;23;20381;-90
2023/01/31 13:59:14;;;;;;;;;;;;;;;;;;6128217;23;19969;-90
2023/01/31 14:01:40;;;;;;;;;;;;;;;;;;6128841;23;19923;-90
2023/01/31 14:04:06;;;;;;;;;;;;;;;;;;6128527;23;20414;-91
2023/01/31 14:06:32;;;;;;;;;;;;;;;;;;6128523;23;19970;-90
2023/01/31 14:08:58;;;;;;;;;;;;;;;;;;6152999;23;19920;-89
2023/01/31 14:11:24;;;;;;;;;;;;;;;;;;6153028;23;20036;-89
2023/01/31 14:13:51;;;;;;;;;;;;;;;;;;6128448;23;19959;-89
2023/01/31 14:16:17;;;;;;;;;;;;;;;;;;6128418;23;20365;-90
2023/01/31 14:18:43;;;;;;;;;;;;;;;;;;6128360;23;19917;-89
2023/01/31 14:21:08;;;;;;;;;;;;;;;;;;6153677;23;19924;-89
2023/01/31 14:23:34;;;;;;;;;;;;;;;;;;6130635;23;19923;-89
2023/01/31 14:26:00;;;;;;;;;;;;;;;;;;6155076;23;19917;-89
2023/01/31 14:28:26;;;;;;;;;;;;;;;;;;6130100;23;19921;-89
2023/01/31 14:30:52;;;;;;;;;;;;;;;;;;6129867;23;19925;-89
2023/01/31 14:33:18;;;;;;;;;;;;;;;;;;6130469;23;19923;-90
2023/01/31 14:35:44;;;;;;;;;;;;;;;;;;6130341;23;19955;-89
2023/01/31 14:38:10;;;;;;;;;;;;;;;;;;6130426;23;19916;-89
2023/01/31 14:40:36;;;;;;;;;;;;;;;;;;6129688;23;20339;-89
2023/01/31 14:43:02;;;;;;;;;;;;;;;;;;6130167;23;20259;-89
2023/01/31 14:45:28;;;;;;;;;;;;;;;;;;6130238;23;19916;-90
2023/01/31 14:47:54;;;;;;;;;;;;;;;;;;6130505;23;19996;-89
2023/01/31 14:50:20;;;;;;;;;;;;;;;;;;6154326;23;19917;-89
2023/01/31 14:52:46;;;;;;;;;;;;;;;;;;6154994;23;19916;-89
2023/01/31 14:55:11;;;;;;;;;;;;;;;;;;6130259;23;19928;-89
2023/01/31 14:57:37;;;;;;;;;;;;;;;;;;6130013;23;19916;-89
2023/01/31 15:00:03;;;;;;;;;;;;;;;;;;6154171;23;20010;-90
2023/01/31 15:02:29;;;;;;;;;;;;;;;;;;6154854;23;19931;-89
2023/01/31 15:04:55;;;;;;;;;;;;;;;;;;6130137;23;19999;-89
2023/01/31 15:07:21;;;;;;;;;;;;;;;;;;6130109;23;19927;-89
2023/01/31 15:09:49;;;;;;;;;;;;;;;;;;6129775;23;20357;-89
2023/01/31 15:12:15;;;;;;;;;;;;;;;;;;6130206;23;19967;-89
2023/01/31 15:14:43;;;;;;;;;;;;;;;;;;6129950;23;19916;-90
2023/01/31 15:17:10;;;;;;;;;;;;;;;;;;6105070;23;19982;-89
2023/01/31 15:30:18;;;;;;;;;;;;;;;;;;5070258;27;1944378;-89
2023/01/31 15:32:44;;;;;;;;;;;;;;;;;;5094902;28;20266;-88
2023/01/31 15:35:10;;;;;;;;;;;;;;;;;;5095065;28;19980;-90
2023/01/31 15:37:36;;;;;;;;;;;;;;;;;;5094844;28;20326;-89
2023/01/31 15:40:02;;;;;;;;;;;;;;;;;;5108724;28;19920;-89
2023/01/31 15:42:28;;;;;;;;;;;;;;;;;;5093082;28;20003;-89
2023/01/31 15:44:54;;;;;;;;;;;;;;;;;;5094605;28;19919;-89
2023/01/31 15:47:20;;;;;;;;;;;;;;;;;;5094504;28;19926;-89
2023/01/31 15:49:46;;;;;;;;;;;;;;;;;;5090447;28;20014;-89
2023/01/31 15:52:12;;;;;;;;;;;;;;;;;;5074218;28;20359;-89
2023/01/31 15:54:38;;;;;;;;;;;;;;;;;;5091381;28;20011;-89
2023/01/31 15:57:04;;;;;;;;;;;;;;;;;;5074422;28;19920;-90
2023/01/31 15:59:31;;;;;;;;;;;;;;;;;;5090778;28;19943;-90
2023/01/31 16:01:57;;;;;;;;;;;;;;;;;;5079136;28;20388;-90
2023/01/31 16:04:23;;;;;;;;;;;;;;;;;;5091317;28;20425;-90
2023/01/31 16:06:49;;;;;;;;;;;;;;;;;;5074104;28;19924;-89
2023/01/31 16:09:15;;;;;;;;;;;;;;;;;;5075289;28;19920;-91
2023/01/31 16:11:40;;;;;;;;;;;;;;;;;;5074634;28;19920;-90
2023/01/31 16:14:06;;;;;;;;;;;;;;;;;;5073779;28;19928;-90
2023/01/31 16:16:32;;;;;;;;;;;;;;;;;;5074001;28;20297;-90
2023/01/31 16:18:58;;;;;;;;;;;;;;;;;;5073702;28;19924;-91
2023/01/31 16:21:24;;;;;;;;;;;;;;;;;;5073581;28;19920;-90
2023/01/31 16:23:50;;;;;;;;;;;;;;;;;;5076336;28;20453;-90
2023/01/31 16:26:16;;;;;;;;;;;;;;;;;;5081332;28;19930;-89
2023/01/31 16:28:42;;;;;;;;;;;;;;;;;;5094099;28;19926;-90
2023/01/31 16:31:08;;;;;;;;;;;;;;;;;;5080426;28;19959;-89
2023/01/31 16:33:34;;;;;;;;;;;;;;;;;;5077106;28;20296;-89
2023/01/31 16:36:00;;;;;;;;;;;;;;;;;;5077076;28;19936;-90
2023/01/31 16:38:25;;;;;;;;;;;;;;;;;;5076888;28;19927;-91
2023/01/31 16:41:11;;;;;;;;;;;;;;;;;;5059506;28;19920;-89
2023/01/31 16:43:38;;;;;;;;;;;;;;;;;;5060861;28;20563;-90
2023/01/31 16:46:07;;;;;;;;;;;;;;;;;;5060037;28;19931;-90
2023/01/31 16:48:33;;;;;;;;;;;;;;;;;;5060647;28;20382;-90
2023/01/31 16:50:59;;;;;;;;;;;;;;;;;;5072049;28;19970;-90
2023/01/31 16:53:25;;;;;;;;;;;;;;;;;;5060267;28;19927;-90
2023/01/31 16:55:51;;;;;;;;;;;;;;;;;;5060050;28;20471;-90
2023/01/31 16:58:17;;;;;;;;;;;;;;;;;;5060487;28;20400;-91